sensor_id;sensor_type;location;lat;lon;timestamp;pressure;altitude;pressure_sealevel;temperature;humidity
35226;BME280;21813;49.686;21.766;2023-04-01T00:01:42;96701.53;;;8.36;100.00
35226;BME280;21813;49.686;21.766;2023-04-01T00:04:08;96701.34;;;8.38;100.00
35226;BME280;21813;49.686;21.766;2023-04-01T00:06:34;96708.31;;;8.37;100.00
35226;BME280;21813;49.686;21.766;2023-04-01T00:09:00;96710.28;;;8.35;100.00
35226;BME280;21813;49.686;21.766;2023-04-01T00:11:25;96696.63;;;8.33;100.00
35226;BME280;21813;49.686;21.766;2023-04-01T00:13:54;96690.09;;;8.29;100.00
35226;BME280;21813;49.686;21.766;2023-04-01T00:16:20;96689.41;;;8.27;100.00
35226;BME280;21813;49.686;21.766;2023-04-01T00:18:46;96688.75;;;8.25;100.00
35226;BME280;21813;49.686;21.766;2023-04-01T00:21:15;96689.69;;;8.24;100.00
35226;BME280;21813;49.686;21.766;2023-04-01T00:23:42;96696.97;;;8.21;100.00
35226;BME280;21813;49.686;21.766;2023-04-01T00:26:07;96696.16;;;8.20;100.00
35226;BME280;21813;49.686;21.766;2023-04-01T00:28:34;96690.44;;;8.17;100.00
35226;BME280;21813;49.686;21.766;2023-04-01T00:31:24;96692.91;;;8.18;100.00
35226;BME280;21813;49.686;21.766;2023-04-01T00:33:51;96683.09;;;8.12;100.00
35226;BME280;21813;49.686;21.766;2023-04-01T00:36:19;96690.22;;;8.10;100.00
35226;BME280;21813;49.686;21.766;2023-04-01T00:39:01;96680.44;;;8.04;100.00
35226;BME280;21813;49.686;21.766;2023-04-01T00:41:27;96686.16;;;8.08;100.00
35226;BME280;21813;49.686;21.766;2023-04-01T00:44:20;96688.88;;;8.06;100.00
35226;BME280;21813;49.686;21.766;2023-04-01T00:46:50;96677.16;;;8.02;100.00
35226;BME280;21813;49.686;21.766;2023-04-01T00:49:20;96675.53;;;8.01;100.00
35226;BME280;21813;49.686;21.766;2023-04-01T00:51:58;96677.47;;;7.99;100.00
35226;BME280;21813;49.686;21.766;2023-04-01T00:54:32;96665.59;;;7.96;100.00
35226;BME280;21813;49.686;21.766;2023-04-01T00:57:15;96658.44;;;7.90;100.00
35226;BME280;21813;49.686;21.766;2023-04-01T00:59:48;96658.25;;;7.92;100.00
35226;BME280;21813;49.686;21.766;2023-04-01T01:02:15;96659.81;;;7.85;100.00
35226;BME280;21813;49.686;21.766;2023-04-01T01:04:43;96661.28;;;7.87;100.00
35226;BME280;21813;49.686;21.766;2023-04-01T01:09:47;96662.41;;;7.85;100.00
35226;BME280;21813;49.686;21.766;2023-04-01T01:37:01;96664.25;;;7.75;100.00
35226;BME280;21813;49.686;21.766;2023-04-01T01:39:31;96657.44;;;7.74;100.00
35226;BME280;21813;49.686;21.766;2023-04-01T01:42:03;96670.28;;;7.75;100.00
35226;BME280;21813;49.686;21.766;2023-04-01T01:46:58;96671.22;;;7.74;100.00
35226;BME280;21813;49.686;21.766;2023-04-01T01:49:26;96665.91;;;7.76;100.00
35226;BME280;21813;49.686;21.766;2023-04-01T01:51:53;96675.44;;;7.75;100.00
35226;BME280;21813;49.686;21.766;2023-04-01T01:54:19;96676.28;;;7.76;100.00
35226;BME280;21813;49.686;21.766;2023-04-01T01:56:47;96681.16;;;7.79;100.00
35226;BME280;21813;49.686;21.766;2023-04-01T02:03:07;96684.31;;;7.73;100.00
35226;BME280;21813;49.686;21.766;2023-04-01T02:05:45;96686.78;;;7.74;100.00
35226;BME280;21813;49.686;21.766;2023-04-01T02:11:05;96682.03;;;7.70;100.00
35226;BME280;21813;49.686;21.766;2023-04-01T02:13:54;96689.81;;;7.70;100.00
35226;BME280;21813;49.686;21.766;2023-04-01T02:16:29;96696.47;;;7.72;100.00
35226;BME280;21813;49.686;21.766;2023-04-01T02:21:33;96690.50;;;7.72;100.00
35226;BME280;21813;49.686;21.766;2023-04-01T02:27:18;96689.81;;;7.70;100.00
35226;BME280;21813;49.686;21.766;2023-04-01T02:30:04;96686.84;;;7.65;100.00
35226;BME280;21813;49.686;21.766;2023-04-01T02:33:19;96692.53;;;7.68;100.00
35226;BME280;21813;49.686;21.766;2023-04-01T02:36:00;96680.44;;;7.59;100.00
35226;BME280;21813;49.686;21.766;2023-04-01T02:38:27;96678.53;;;7.61;100.00
35226;BME280;21813;49.686;21.766;2023-04-01T02:40:58;96686.19;;;7.63;100.00
35226;BME280;21813;49.686;21.766;2023-04-01T02:43:25;96685.19;;;7.64;100.00
35226;BME280;21813;49.686;21.766;2023-04-01T02:45:51;96684.94;;;7.67;100.00
35226;BME280;21813;49.686;21.766;2023-04-01T02:48:17;96687.22;;;7.70;100.00
35226;BME280;21813;49.686;21.766;2023-04-01T02:50:43;96692.72;;;7.67;100.00
35226;BME280;21813;49.686;21.766;2023-04-01T02:53:09;96682.59;;;7.64;100.00
35226;BME280;21813;49.686;21.766;2023-04-01T02:55:35;96682.34;;;7.67;100.00
35226;BME280;21813;49.686;21.766;2023-04-01T02:58:03;96688.47;;;7.66;100.00
35226;BME280;21813;49.686;21.766;2023-04-01T03:00:32;96692.72;;;7.67;100.00
35226;BME280;21813;49.686;21.766;2023-04-01T03:02:59;96692.97;;;7.64;100.00
35226;BME280;21813;49.686;21.766;2023-04-01T03:05:25;96698.97;;;7.64;100.00
35226;BME280;21813;49.686;21.766;2023-04-01T03:07:54;96694.91;;;7.62;100.00
35226;BME280;21813;49.686;21.766;2023-04-01T03:10:20;96688.78;;;7.63;100.00
35226;BME280;21813;49.686;21.766;2023-04-01T03:12:46;96698.47;;;7.61;100.00
35226;BME280;21813;49.686;21.766;2023-04-01T03:15:13;96698.16;;;7.64;100.00
35226;BME280;21813;49.686;21.766;2023-04-01T03:17:48;96693.28;;;7.61;100.00
35226;BME280;21813;49.686;21.766;2023-04-01T03:20:13;96701.75;;;7.63;100.00
35226;BME280;21813;49.686;21.766;2023-04-01T03:22:46;96694.66;;;7.55;100.00
35226;BME280;21813;49.686;21.766;2023-04-01T03:25:15;96701.50;;;7.56;100.00
35226;BME280;21813;49.686;21.766;2023-04-01T03:27:42;96707.50;;;7.57;100.00
35226;BME280;21813;49.686;21.766;2023-04-01T03:30:08;96683.09;;;7.49;100.00
35226;BME280;21813;49.686;21.766;2023-04-01T03:32:35;96705.03;;;7.55;100.00
35226;BME280;21813;49.686;21.766;2023-04-01T03:35:01;96691.69;;;7.50;100.00
35226;BME280;21813;49.686;21.766;2023-04-01T03:37:27;96689.25;;;7.48;100.00
35226;BME280;21813;49.686;21.766;2023-04-01T03:39:53;96704.50;;;7.51;100.00
35226;BME280;21813;49.686;21.766;2023-04-01T03:42:19;96706.97;;;7.53;100.00
35226;BME280;21813;49.686;21.766;2023-04-01T03:44:45;96707.78;;;7.53;100.00
35226;BME280;21813;49.686;21.766;2023-04-01T03:47:11;96702.59;;;7.53;100.00
35226;BME280;21813;49.686;21.766;2023-04-01T03:49:37;96705.03;;;7.55;100.00
35226;BME280;21813;49.686;21.766;2023-04-01T03:52:03;96708.75;;;7.52;100.00
35226;BME280;21813;49.686;21.766;2023-04-01T03:54:31;96717.34;;;7.53;100.00
35226;BME280;21813;49.686;21.766;2023-04-01T03:56:58;96714.75;;;7.53;100.00
35226;BME280;21813;49.686;21.766;2023-04-01T03:59:24;96730.13;;;7.54;100.00
35226;BME280;21813;49.686;21.766;2023-04-01T04:01:50;96724.44;;;7.51;100.00
35226;BME280;21813;49.686;21.766;2023-04-01T04:04:16;96716.00;;;7.49;100.00
35226;BME280;21813;49.686;21.766;2023-04-01T04:06:53;96726.59;;;7.55;100.00
35226;BME280;21813;49.686;21.766;2023-04-01T04:09:19;96712.41;;;7.50;100.00
35226;BME280;21813;49.686;21.766;2023-04-01T04:12:07;96720.75;;;7.53;100.00
35226;BME280;21813;49.686;21.766;2023-04-01T04:14:33;96718.44;;;7.50;100.00
35226;BME280;21813;49.686;21.766;2023-04-01T04:17:23;96724.94;;;7.54;100.00
35226;BME280;21813;49.686;21.766;2023-04-01T04:19:48;96728.22;;;7.57;100.00
35226;BME280;21813;49.686;21.766;2023-04-01T04:22:14;96729.06;;;7.57;100.00
35226;BME280;21813;49.686;21.766;2023-04-01T04:24:40;96717.19;;;7.54;100.00
35226;BME280;21813;49.686;21.766;2023-04-01T04:27:06;96725.94;;;7.53;100.00
35226;BME280;21813;49.686;21.766;2023-04-01T04:29:32;96729.88;;;7.58;100.00
35226;BME280;21813;49.686;21.766;2023-04-01T04:35:42;96712.97;;;7.53;100.00
35226;BME280;21813;49.686;21.766;2023-04-01T04:38:09;96716.53;;;7.52;100.00
35226;BME280;21813;49.686;21.766;2023-04-01T04:40:36;96715.00;;;7.50;100.00
35226;BME280;21813;49.686;21.766;2023-04-01T04:43:03;96714.06;;;7.51;100.00
35226;BME280;21813;49.686;21.766;2023-04-01T04:45:32;96719.94;;;7.53;100.00
35226;BME280;21813;49.686;21.766;2023-04-01T04:48:08;96714.59;;;7.54;100.00
35226;BME280;21813;49.686;21.766;2023-04-01T04:54:14;96714.59;;;7.54;100.00
35226;BME280;21813;49.686;21.766;2023-04-01T04:56:40;96708.44;;;7.55;100.00
35226;BME280;21813;49.686;21.766;2023-04-01T04:59:05;96711.03;;;7.55;100.00
35226;BME280;21813;49.686;21.766;2023-04-01T05:01:33;96705.19;;;7.53;100.00
35226;BME280;21813;49.686;21.766;2023-04-01T05:03:59;96715.94;;;7.59;100.00
35226;BME280;21813;49.686;21.766;2023-04-01T05:06:27;96715.94;;;7.59;100.00
35226;BME280;21813;49.686;21.766;2023-04-01T05:08:57;96710.59;;;7.60;100.00
35226;BME280;21813;49.686;21.766;2023-04-01T05:11:24;96711.56;;;7.59;100.00
35226;BME280;21813;49.686;21.766;2023-04-01T05:13:53;96713.34;;;7.59;100.00
35226;BME280;21813;49.686;21.766;2023-04-01T05:16:20;96709.41;;;7.54;100.00
35226;BME280;21813;49.686;21.766;2023-04-01T05:18:46;96711.03;;;7.55;100.00
35226;BME280;21813;49.686;21.766;2023-04-01T05:21:14;96712.69;;;7.57;100.00
35226;BME280;21813;49.686;21.766;2023-04-01T05:23:40;96710.47;;;7.62;100.00
35226;BME280;21813;49.686;21.766;2023-04-01T05:26:10;96707.28;;;7.68;100.00
35226;BME280;21813;49.686;21.766;2023-04-01T05:28:35;96713.53;;;7.75;100.00
35226;BME280;21813;49.686;21.766;2023-04-01T05:31:05;96718.81;;;7.83;100.00
35226;BME280;21813;49.686;21.766;2023-04-01T05:33:31;96723.41;;;7.89;100.00
35226;BME280;21813;49.686;21.766;2023-04-01T05:36:15;96721.47;;;7.91;100.00
35226;BME280;21813;49.686;21.766;2023-04-01T05:38:43;96716.59;;;7.88;100.00
35226;BME280;21813;49.686;21.766;2023-04-01T05:41:15;96721.13;;;7.86;100.00
35226;BME280;21813;49.686;21.766;2023-04-01T05:43:41;96723.56;;;7.87;100.00
35226;BME280;21813;49.686;21.766;2023-04-01T05:46:16;96723.88;;;8.02;100.00
35226;BME280;21813;49.686;21.766;2023-04-01T05:48:42;96728.63;;;8.24;100.00
35226;BME280;21813;49.686;21.766;2023-04-01T05:51:13;96731.03;;;8.35;100.00
35226;BME280;21813;49.686;21.766;2023-04-01T05:53:40;96729.47;;;8.42;100.00
35226;BME280;21813;49.686;21.766;2023-04-01T05:56:12;96736.66;;;8.49;100.00
35226;BME280;21813;49.686;21.766;2023-04-01T05:59:04;96737.41;;;8.59;100.00
35226;BME280;21813;49.686;21.766;2023-04-01T06:01:30;96728.53;;;8.69;100.00
35226;BME280;21813;49.686;21.766;2023-04-01T06:04:23;96724.84;;;8.98;100.00
35226;BME280;21813;49.686;21.766;2023-04-01T06:06:50;96727.50;;;9.31;100.00
35226;BME280;21813;49.686;21.766;2023-04-01T06:09:19;96728.59;;;9.63;100.00
35226;BME280;21813;49.686;21.766;2023-04-01T06:20:12;96737.97;;;10.40;100.00
35226;BME280;21813;49.686;21.766;2023-04-01T06:23:07;96740.56;;;10.40;100.00
35226;BME280;21813;49.686;21.766;2023-04-01T06:25:48;96737.78;;;10.98;100.00
35226;BME280;21813;49.686;21.766;2023-04-01T06:31:02;96732.00;;;12.21;99.81
35226;BME280;21813;49.686;21.766;2023-04-01T06:36:23;96735.59;;;13.69;91.06
35226;BME280;21813;49.686;21.766;2023-04-01T06:39:11;96736.81;;;14.53;86.39
35226;BME280;21813;49.686;21.766;2023-04-01T06:42:20;96732.44;;;15.37;82.45
35226;BME280;21813;49.686;21.766;2023-04-01T06:45:13;96733.50;;;16.18;79.51
35226;BME280;21813;49.686;21.766;2023-04-01T06:53:23;96732.81;;;18.14;66.93
35226;BME280;21813;49.686;21.766;2023-04-01T06:56:25;96732.25;;;18.81;64.48
35226;BME280;21813;49.686;21.766;2023-04-01T06:59:28;96728.47;;;18.70;65.00
35226;BME280;21813;49.686;21.766;2023-04-01T07:09:33;96730.91;;;17.89;67.56
35226;BME280;21813;49.686;21.766;2023-04-01T07:15:19;96729.75;;;20.33;58.43
35226;BME280;21813;49.686;21.766;2023-04-01T07:17:47;96735.09;;;20.26;54.42
35226;BME280;21813;49.686;21.766;2023-04-01T07:20:26;96737.25;;;19.38;54.48
35226;BME280;21813;49.686;21.766;2023-04-01T07:22:57;96730.19;;;18.58;55.89
35226;BME280;21813;49.686;21.766;2023-04-01T07:28:15;96734.16;;;17.72;57.56
35226;BME280;21813;49.686;21.766;2023-04-01T07:34:12;96713.97;;;18.48;55.58
35226;BME280;21813;49.686;21.766;2023-04-01T07:50:25;96720.13;;;17.91;56.57
35226;BME280;21813;49.686;21.766;2023-04-01T08:09:43;96705.63;;;19.32;53.07
35226;BME280;21813;49.686;21.766;2023-04-01T08:12:21;96719.66;;;19.08;53.48
35226;BME280;21813;49.686;21.766;2023-04-01T08:21:17;96711.56;;;16.85;58.69
35226;BME280;21813;49.686;21.766;2023-04-01T08:23:57;96715.16;;;16.45;62.42
35226;BME280;21813;49.686;21.766;2023-04-01T08:26:38;96722.78;;;16.33;62.98
35226;BME280;21813;49.686;21.766;2023-04-01T08:29:34;96708.63;;;16.27;65.64
35226;BME280;21813;49.686;21.766;2023-04-01T08:32:22;96722.56;;;16.28;65.95
35226;BME280;21813;49.686;21.766;2023-04-01T08:35:11;96710.22;;;16.15;65.25
35226;BME280;21813;49.686;21.766;2023-04-01T08:37:43;96719.06;;;16.01;65.18
35226;BME280;21813;49.686;21.766;2023-04-01T08:43:28;96720.31;;;15.36;63.92
35226;BME280;21813;49.686;21.766;2023-04-01T08:46:13;96722.94;;;15.09;65.36
35226;BME280;21813;49.686;21.766;2023-04-01T09:06:08;96719.41;;;14.95;70.72
35226;BME280;21813;49.686;21.766;2023-04-01T09:29:31;96703.59;;;15.78;68.54
35226;BME280;21813;49.686;21.766;2023-04-01T09:35:50;96702.31;;;16.09;64.07
35226;BME280;21813;49.686;21.766;2023-04-01T09:38:57;96697.53;;;15.78;60.71
35226;BME280;21813;49.686;21.766;2023-04-01T09:41:41;96696.91;;;15.41;61.85
35226;BME280;21813;49.686;21.766;2023-04-01T09:44:45;96699.47;;;15.00;63.75
35226;BME280;21813;49.686;21.766;2023-04-01T09:47:57;96701.38;;;14.85;66.57
35226;BME280;21813;49.686;21.766;2023-04-01T10:17:03;96696.00;;;14.66;66.05
35226;BME280;21813;49.686;21.766;2023-04-01T10:48:21;96705.78;;;14.36;67.62
35226;BME280;21813;49.686;21.766;2023-04-01T10:54:25;96714.91;;;14.25;68.51
35226;BME280;21813;49.686;21.766;2023-04-01T10:56:38;96717.66;;;14.17;69.95
35226;BME280;21813;49.686;21.766;2023-04-01T11:19:25;96700.19;;;14.24;65.77
35226;BME280;21813;49.686;21.766;2023-04-01T11:30:14;96693.53;;;14.64;63.94
35226;BME280;21813;49.686;21.766;2023-04-01T11:41:40;96690.31;;;14.90;61.75
35226;BME280;21813;49.686;21.766;2023-04-01T11:44:24;96685.13;;;14.96;60.39
35226;BME280;21813;49.686;21.766;2023-04-01T11:49:55;96690.78;;;15.00;59.22
35226;BME280;21813;49.686;21.766;2023-04-01T12:06:16;96691.34;;;14.89;61.49
35226;BME280;21813;49.686;21.766;2023-04-01T12:09:17;96693.72;;;14.84;62.55
35226;BME280;21813;49.686;21.766;2023-04-01T12:12:27;96692.44;;;14.80;62.07
35226;BME280;21813;49.686;21.766;2023-04-01T12:15:30;96697.66;;;14.73;61.91
35226;BME280;21813;49.686;21.766;2023-04-01T12:22:12;96691.97;;;14.70;64.24
35226;BME280;21813;49.686;21.766;2023-04-01T12:42:32;96696.94;;;14.86;61.94
35226;BME280;21813;49.686;21.766;2023-04-01T13:33:52;96718.59;;;14.94;62.02
35226;BME280;21813;49.686;21.766;2023-04-01T13:44:54;96715.84;;;14.75;61.46
35226;BME280;21813;49.686;21.766;2023-04-01T14:09:52;96730.78;;;14.81;63.69
35226;BME280;21813;49.686;21.766;2023-04-01T14:15:44;96722.06;;;14.74;63.62
35226;BME280;21813;49.686;21.766;2023-04-01T14:40:26;96727.47;;;14.66;66.22
35226;BME280;21813;49.686;21.766;2023-04-01T14:51:50;96735.63;;;14.56;67.66
35226;BME280;21813;49.686;21.766;2023-04-01T14:54:30;96720.06;;;14.54;67.58
35226;BME280;21813;49.686;21.766;2023-04-01T14:58:13;96729.44;;;14.64;67.71
35226;BME280;21813;49.686;21.766;2023-04-01T15:00:17;96729.44;;;14.64;67.99
35226;BME280;21813;49.686;21.766;2023-04-01T15:12:07;96744.63;;;14.47;65.70
35226;BME280;21813;49.686;21.766;2023-04-01T15:17:38;96754.59;;;14.37;67.60
35226;BME280;21813;49.686;21.766;2023-04-01T15:28:45;96762.97;;;14.32;66.89
35226;BME280;21813;49.686;21.766;2023-04-01T15:31:16;96757.09;;;14.30;67.28
35226;BME280;21813;49.686;21.766;2023-04-01T15:39:12;96776.53;;;14.21;66.63
35226;BME280;21813;49.686;21.766;2023-04-01T15:44:53;96781.25;;;14.11;68.46
35226;BME280;21813;49.686;21.766;2023-04-01T15:58:59;96804.50;;;13.99;69.34
35226;BME280;21813;49.686;21.766;2023-04-01T16:01:38;96806.03;;;13.94;69.53
35226;BME280;21813;49.686;21.766;2023-04-01T16:04:40;96813.00;;;13.87;69.72
35226;BME280;21813;49.686;21.766;2023-04-01T16:18:09;96821.38;;;13.67;69.49
35226;BME280;21813;49.686;21.766;2023-04-01T16:20:46;96829.59;;;13.64;69.38
35226;BME280;21813;49.686;21.766;2023-04-01T16:23:28;96830.94;;;13.60;69.46
35226;BME280;21813;49.686;21.766;2023-04-01T16:28:54;96838.06;;;13.52;70.08
35226;BME280;21813;49.686;21.766;2023-04-01T16:37:00;96851.59;;;13.41;70.70
35226;BME280;21813;49.686;21.766;2023-04-01T16:39:54;96856.00;;;13.40;70.96
35226;BME280;21813;49.686;21.766;2023-04-01T16:42:34;96859.31;;;13.34;71.41
35226;BME280;21813;49.686;21.766;2023-04-01T16:45:17;96867.16;;;13.34;71.59
35226;BME280;21813;49.686;21.766;2023-04-01T16:47:57;96872.78;;;13.31;72.41
35226;BME280;21813;49.686;21.766;2023-04-01T16:50:53;96883.56;;;13.28;72.59
35226;BME280;21813;49.686;21.766;2023-04-01T16:53:47;96885.06;;;13.22;73.35
35226;BME280;21813;49.686;21.766;2023-04-01T16:56:24;96889.22;;;13.17;73.52
35226;BME280;21813;49.686;21.766;2023-04-01T17:02:11;96884.25;;;12.99;74.12
35226;BME280;21813;49.686;21.766;2023-04-01T17:04:57;96885.41;;;12.97;74.33
35226;BME280;21813;49.686;21.766;2023-04-01T17:07:38;96894.72;;;12.99;74.71
35226;BME280;21813;49.686;21.766;2023-04-01T17:30:22;96929.72;;;12.59;78.28
35226;BME280;21813;49.686;21.766;2023-04-01T17:35:35;96931.75;;;12.41;79.44
35226;BME280;21813;49.686;21.766;2023-04-01T17:38:34;96941.25;;;12.34;80.65
35226;BME280;21813;49.686;21.766;2023-04-01T17:41:28;96947.31;;;12.26;82.69
35226;BME280;21813;49.686;21.766;2023-04-01T17:47:00;96961.88;;;12.13;85.15
35226;BME280;21813;49.686;21.766;2023-04-01T17:49:39;96965.16;;;12.07;86.09
35226;BME280;21813;49.686;21.766;2023-04-01T17:52:31;96962.06;;;11.95;85.96
35226;BME280;21813;49.686;21.766;2023-04-01T18:12:30;96986.69;;;11.52;87.37
35226;BME280;21813;49.686;21.766;2023-04-01T18:20:56;97007.69;;;11.34;87.62
35226;BME280;21813;49.686;21.766;2023-04-01T18:26:20;97000.81;;;11.09;89.18
35226;BME280;21813;49.686;21.766;2023-04-01T18:29:12;97005.50;;;11.05;89.82
35226;BME280;21813;49.686;21.766;2023-04-01T18:38:27;97008.66;;;10.75;92.18
35226;BME280;21813;49.686;21.766;2023-04-01T18:52:23;97028.78;;;10.57;94.88
35226;BME280;21813;49.686;21.766;2023-04-01T18:57:58;97028.41;;;10.52;95.79
35226;BME280;21813;49.686;21.766;2023-04-01T19:33:36;97069.19;;;10.35;100.00
35226;BME280;21813;49.686;21.766;2023-04-01T19:36:31;97056.78;;;10.29;100.00
35226;BME280;21813;49.686;21.766;2023-04-01T19:39:53;97075.50;;;10.33;100.00
35226;BME280;21813;49.686;21.766;2023-04-01T19:57:05;97086.38;;;10.10;100.00
35226;BME280;21813;49.686;21.766;2023-04-01T20:00:02;97089.66;;;10.12;100.00
35226;BME280;21813;49.686;21.766;2023-04-01T20:02:50;97084.75;;;10.09;100.00
35226;BME280;21813;49.686;21.766;2023-04-01T20:08:32;97091.91;;;10.07;100.00
35226;BME280;21813;49.686;21.766;2023-04-01T20:17:07;97093.31;;;10.02;100.00
35226;BME280;21813;49.686;21.766;2023-04-01T20:25:43;97086.53;;;9.91;100.00
35226;BME280;21813;49.686;21.766;2023-04-01T20:29:00;97099.25;;;9.94;100.00
35226;BME280;21813;49.686;21.766;2023-04-01T20:31:43;97092.88;;;9.89;100.00
35226;BME280;21813;49.686;21.766;2023-04-01T20:41:26;97099.50;;;9.83;100.00
35226;BME280;21813;49.686;21.766;2023-04-01T20:49:33;97110.47;;;9.77;100.00
35226;BME280;21813;49.686;21.766;2023-04-01T20:52:26;97114.34;;;9.73;100.00
35226;BME280;21813;49.686;21.766;2023-04-01T20:58:46;97109.72;;;9.67;100.00
35226;BME280;21813;49.686;21.766;2023-04-01T21:07:56;97115.16;;;9.56;100.00
35226;BME280;21813;49.686;21.766;2023-04-01T21:41:31;97128.75;;;9.50;100.00
35226;BME280;21813;49.686;21.766;2023-04-01T22:37:08;97149.59;;;9.40;100.00
35226;BME280;21813;49.686;21.766;2023-04-01T22:48:30;97152.06;;;9.42;100.00
35226;BME280;21813;49.686;21.766;2023-04-01T22:54:31;97142.91;;;9.38;100.00
35226;BME280;21813;49.686;21.766;2023-04-01T23:02:13;97151.53;;;9.38;100.00
35226;BME280;21813;49.686;21.766;2023-04-01T23:10:44;97149.38;;;9.34;100.00
35226;BME280;21813;49.686;21.766;2023-04-01T23:13:43;97157.84;;;9.36;100.00
35226;BME280;21813;49.686;21.766;2023-04-01T23:16:20;97154.28;;;9.37;100.00
